createdAt,value
2018-09-19T00:01:31.383Z,93.50
2018-09-19T00:04:55.889Z,93.60
2018-09-19T00:08:20.302Z,93.90
2018-09-19T00:11:44.718Z,94.10
2018-09-19T00:15:09.175Z,94.30
2018-09-19T00:18:33.621Z,94.30
2018-09-19T00:21:58.044Z,94.30
2018-09-19T00:25:22.476Z,94.40
2018-09-19T00:28:46.897Z,94.50
2018-09-19T00:32:11.423Z,94.50
2018-09-19T00:35:35.952Z,94.70
2018-09-19T00:39:00.430Z,94.90
2018-09-19T00:42:24.889Z,95.00
2018-09-19T00:45:49.314Z,95.00
2018-09-19T00:49:13.721Z,95.30
2018-09-19T00:52:38.187Z,95.40
2018-09-19T00:56:02.657Z,95.60
2018-09-19T00:59:27.093Z,96.00
2018-09-19T01:02:51.543Z,96.20
2018-09-19T01:06:16.001Z,96.40
2018-09-19T01:09:40.417Z,96.40
2018-09-19T01:13:04.807Z,96.70
2018-09-19T01:16:29.204Z,96.90
2018-09-19T01:19:53.669Z,96.80
2018-09-19T01:23:18.120Z,97.10
2018-09-19T01:26:42.534Z,96.80
2018-09-19T01:30:07.561Z,96.90
2018-09-19T01:33:31.956Z,97.10
2018-09-19T01:36:56.406Z,97.20
2018-09-19T01:40:20.842Z,97.30
2018-09-19T01:43:45.286Z,97.50
2018-09-19T01:47:09.703Z,97.60
2018-09-19T01:50:34.124Z,97.50
2018-09-19T01:53:58.547Z,97.50
2018-09-19T01:57:23.035Z,97.70
2018-09-19T02:00:47.465Z,97.80
2018-09-19T02:04:11.910Z,98.00
2018-09-19T02:07:36.551Z,98.00
2018-09-19T02:11:00.949Z,98.00
2018-09-19T02:14:25.382Z,98.10
2018-09-19T02:17:49.833Z,98.10
2018-09-19T02:21:14.267Z,98.30
2018-09-19T02:24:38.735Z,98.30
2018-09-19T02:28:03.505Z,98.50
2018-09-19T02:31:28.211Z,98.50
2018-09-19T02:34:52.668Z,98.70
2018-09-19T02:38:17.107Z,98.70
2018-09-19T02:41:41.506Z,98.80
2018-09-19T02:45:06.023Z,98.90
2018-09-19T02:48:30.457Z,99.10
2018-09-19T02:51:57.947Z,99.20
2018-09-19T02:55:22.552Z,99.30
2018-09-19T02:58:47.062Z,99.40
2018-09-19T03:02:11.445Z,99.50
2018-09-19T03:05:35.846Z,99.70
2018-09-19T03:09:00.278Z,99.60
2018-09-19T03:12:24.764Z,99.60
2018-09-19T03:15:49.170Z,99.50
2018-09-19T03:19:13.611Z,99.50
2018-09-19T03:22:38.095Z,99.60
2018-09-19T03:26:02.515Z,99.60
2018-09-19T03:29:27.150Z,99.90
2018-09-19T03:32:51.606Z,99.90
2018-09-19T03:36:16.032Z,99.80
2018-09-19T03:39:40.452Z,99.80
2018-09-19T03:43:04.888Z,99.90
2018-09-19T03:46:29.313Z,99.90
2018-09-19T03:49:53.772Z,99.90
2018-09-19T03:53:18.192Z,99.80
2018-09-19T03:56:42.626Z,99.80
2018-09-19T04:00:07.156Z,99.80
2018-09-19T04:03:31.590Z,99.60
2018-09-19T04:06:56.005Z,99.90
2018-09-19T04:10:20.500Z,99.90
2018-09-19T04:13:44.906Z,99.90
2018-09-19T04:17:09.345Z,99.90
2018-09-19T04:20:33.768Z,99.90
2018-09-19T04:23:58.227Z,99.90
2018-09-19T04:27:22.641Z,99.90
2018-09-19T04:30:47.077Z,99.90
2018-09-19T04:34:11.469Z,99.90
2018-09-19T04:37:35.951Z,99.90
2018-09-19T04:41:00.386Z,99.90
2018-09-19T04:44:24.993Z,99.90
2018-09-19T04:47:49.581Z,99.90
2018-09-19T04:51:14.016Z,99.90
2018-09-19T04:54:38.437Z,99.90
2018-09-19T04:58:02.848Z,99.90
2018-09-19T05:01:27.301Z,99.90
2018-09-19T05:04:51.749Z,99.90
2018-09-19T05:08:16.276Z,99.90
2018-09-19T05:11:40.856Z,99.90
2018-09-19T05:15:05.310Z,99.90
2018-09-19T05:18:29.838Z,99.90
2018-09-19T05:21:54.307Z,99.90
2018-09-19T05:25:18.767Z,99.90
2018-09-19T05:28:43.192Z,99.90
2018-09-19T05:32:07.661Z,99.90
2018-09-19T05:35:32.095Z,99.90
2018-09-19T05:38:56.562Z,99.90
2018-09-19T05:42:21.006Z,99.90
2018-09-19T05:45:45.458Z,99.90
2018-09-19T05:49:09.889Z,99.90
2018-09-19T05:52:34.316Z,99.90
2018-09-19T05:55:58.831Z,99.90
2018-09-19T05:59:23.252Z,99.90
2018-09-19T06:02:47.669Z,99.90
2018-09-19T06:06:12.116Z,99.90
2018-09-19T06:09:36.531Z,99.70
2018-09-19T06:13:01.003Z,99.40
2018-09-19T06:16:25.384Z,99.00
2018-09-19T06:19:50.268Z,98.50
2018-09-19T06:23:14.686Z,98.20
2018-09-19T06:26:39.123Z,98.50
2018-09-19T06:30:03.595Z,98.50
2018-09-19T06:33:28.043Z,98.20
2018-09-19T06:36:52.504Z,97.90
2018-09-19T06:40:16.945Z,97.90
2018-09-19T06:43:41.358Z,97.50
2018-09-19T06:47:05.916Z,97.40
2018-09-19T06:50:30.327Z,96.90
2018-09-19T06:53:54.792Z,96.60
2018-09-19T06:57:19.257Z,96.30
2018-09-19T07:00:43.691Z,96.20
2018-09-19T07:04:08.196Z,96.00
2018-09-19T07:07:32.660Z,95.70
2018-09-19T07:10:57.111Z,95.90
2018-09-19T07:14:21.592Z,95.50
2018-09-19T07:17:46.023Z,95.00
2018-09-19T07:21:10.554Z,94.80
2018-09-19T07:24:34.958Z,94.50
2018-09-19T07:27:59.482Z,94.40
2018-09-19T07:31:23.909Z,94.20
2018-09-19T07:34:48.401Z,94.10
2018-09-19T07:38:12.796Z,93.80
2018-09-19T07:41:37.194Z,93.80
2018-09-19T07:45:01.651Z,93.90
2018-09-19T07:48:26.079Z,93.90
2018-09-19T07:51:50.555Z,93.80
2018-09-19T07:55:15.082Z,93.70
2018-09-19T07:58:39.529Z,93.60
2018-09-19T08:02:03.954Z,93.40
2018-09-19T08:05:28.394Z,93.40
2018-09-19T08:08:52.834Z,93.50
2018-09-19T08:12:17.201Z,93.20
2018-09-19T08:15:41.625Z,93.10
2018-09-19T08:19:06.028Z,92.90
2018-09-19T08:22:30.550Z,93.00
2018-09-19T08:25:54.886Z,92.70
2018-09-19T08:29:19.317Z,92.40
2018-09-19T08:32:43.778Z,92.10
2018-09-19T08:36:08.306Z,91.70
2018-09-19T08:39:32.778Z,91.80
2018-09-19T08:42:57.242Z,91.90
2018-09-19T08:46:21.712Z,91.70
2018-09-19T08:49:46.185Z,91.50
2018-09-19T08:53:13.232Z,91.00
2018-09-19T08:56:37.635Z,90.90
2018-09-19T09:00:02.133Z,90.80
2018-09-19T09:03:26.599Z,90.80
2018-09-19T09:06:51.059Z,90.80
2018-09-19T09:10:18.466Z,90.30
2018-09-19T09:13:42.944Z,90.00
2018-09-19T09:17:07.322Z,89.10
2018-09-19T09:20:31.789Z,88.60
2018-09-19T09:23:56.224Z,87.70
2018-09-19T09:27:20.764Z,87.20
2018-09-19T09:30:45.138Z,86.40
2018-09-19T09:34:09.675Z,85.40
2018-09-19T09:37:34.326Z,84.40
2018-09-19T09:40:58.769Z,83.70
2018-09-19T09:44:23.294Z,83.80
2018-09-19T09:47:47.723Z,81.20
2018-09-19T09:51:12.140Z,80.60
2018-09-19T09:54:36.766Z,78.40
2018-09-19T09:58:01.322Z,77.60
2018-09-19T10:01:25.791Z,75.40
2018-09-19T10:04:50.240Z,74.70
2018-09-19T10:08:14.693Z,74.00
2018-09-19T10:11:39.126Z,74.60
2018-09-19T10:15:03.527Z,74.80
2018-09-19T10:18:28.012Z,75.80
2018-09-19T10:21:52.428Z,75.30
2018-09-19T10:25:16.919Z,74.80
2018-09-19T10:28:41.367Z,75.10
2018-09-19T10:32:05.893Z,74.20
2018-09-19T10:35:30.325Z,73.20
2018-09-19T10:38:54.798Z,73.10
2018-09-19T10:42:19.227Z,72.60
2018-09-19T10:45:43.683Z,73.00
2018-09-19T10:49:08.184Z,72.70
2018-09-19T10:52:32.594Z,72.50
2018-09-19T10:55:57.106Z,72.40
2018-09-19T10:59:21.565Z,73.70
2018-09-19T11:02:46.040Z,73.10
2018-09-19T11:06:10.497Z,74.00
2018-09-19T11:09:34.925Z,73.90
2018-09-19T11:12:59.344Z,73.80
2018-09-19T11:16:23.755Z,72.00
2018-09-19T11:19:48.331Z,68.90
2018-09-19T11:23:12.785Z,66.50
2018-09-19T11:26:37.207Z,64.50
2018-09-19T11:30:01.666Z,64.20
2018-09-19T11:33:26.106Z,62.60
2018-09-19T11:36:50.528Z,59.30
2018-09-19T11:40:14.967Z,56.90
2018-09-19T11:43:39.483Z,56.90
2018-09-19T11:47:03.959Z,56.40
2018-09-19T11:50:28.446Z,55.10
2018-09-19T11:53:52.889Z,54.80
2018-09-19T11:57:17.566Z,56.20
2018-09-19T12:00:41.980Z,53.10
2018-09-19T12:04:06.482Z,52.40
2018-09-19T12:07:31.318Z,52.40
2018-09-19T12:10:55.751Z,51.90
2018-09-19T12:14:20.207Z,51.80
2018-09-19T12:17:44.680Z,50.70
2018-09-19T12:21:09.120Z,49.10
2018-09-19T12:24:33.528Z,49.00
2018-09-19T12:27:58.179Z,48.80
2018-09-19T12:31:22.621Z,47.90
2018-09-19T12:34:47.075Z,49.70
2018-09-19T12:38:11.923Z,49.50
2018-09-19T12:41:36.398Z,48.30
2018-09-19T12:45:00.800Z,49.60
2018-09-19T12:48:25.199Z,49.80
2018-09-19T12:51:49.630Z,48.60
2018-09-19T12:55:14.110Z,46.50
2018-09-19T12:58:38.973Z,46.70
2018-09-19T13:02:03.386Z,48.80
2018-09-19T13:05:27.829Z,48.50
2018-09-19T13:08:52.282Z,47.20
2018-09-19T13:12:16.940Z,47.00
2018-09-19T13:15:41.343Z,45.70
2018-09-19T13:19:05.777Z,45.30
2018-09-19T13:22:30.224Z,44.50
2018-09-19T13:25:54.633Z,45.10
2018-09-19T13:29:19.073Z,44.60
2018-09-19T13:32:43.496Z,42.80
2018-09-19T13:36:07.903Z,40.50
2018-09-19T13:39:32.337Z,41.80
2018-09-19T13:42:56.802Z,42.50
2018-09-19T13:46:21.308Z,41.50
2018-09-19T13:49:52.767Z,39.30
2018-09-19T13:53:21.438Z,38.60
2018-09-19T13:56:45.853Z,37.90
2018-09-19T14:00:10.299Z,35.90
2018-09-19T14:03:34.729Z,36.50
2018-09-19T14:06:59.115Z,36.50
2018-09-19T14:10:23.592Z,36.50
2018-09-19T14:13:48.008Z,37.20
2018-09-19T14:17:12.399Z,36.30
2018-09-19T14:20:37.125Z,35.80
2018-09-19T14:24:01.600Z,34.80
2018-09-19T14:27:26.013Z,33.50
2018-09-19T14:30:50.422Z,33.70
2018-09-19T14:34:14.850Z,34.40
2018-09-19T14:37:39.287Z,33.80
2018-09-19T14:41:03.759Z,33.50
2018-09-19T14:44:28.188Z,33.30
2018-09-19T14:47:52.708Z,34.20
2018-09-19T14:51:17.123Z,33.70
2018-09-19T14:54:41.572Z,32.80
2018-09-19T14:58:06.025Z,30.90
2018-09-19T15:01:30.417Z,29.80
2018-09-19T15:04:55.020Z,30.40
2018-09-19T15:08:19.465Z,31.30
2018-09-19T15:11:43.901Z,31.20
2018-09-19T15:15:08.318Z,30.70
2018-09-19T15:18:32.752Z,30.00
2018-09-19T15:21:57.317Z,31.40
2018-09-19T15:25:21.748Z,32.70
2018-09-19T15:28:46.230Z,32.20
2018-09-19T15:32:10.737Z,33.00
2018-09-19T15:35:35.232Z,35.20
2018-09-19T15:38:59.679Z,33.90
2018-09-19T15:42:24.165Z,32.90
2018-09-19T15:45:48.676Z,34.70
2018-09-19T15:49:13.115Z,33.90
2018-09-19T15:52:37.525Z,31.70
2018-09-19T15:56:03.393Z,30.50
2018-09-19T15:59:27.844Z,30.00
2018-09-19T16:02:52.285Z,29.60
2018-09-19T16:06:16.731Z,30.20
2018-09-19T16:09:41.192Z,29.80
2018-09-19T16:13:27.190Z,30.00
2018-09-19T16:16:51.652Z,30.50
2018-09-19T16:20:16.175Z,31.00
2018-09-19T16:23:40.598Z,31.30
2018-09-19T16:27:05.053Z,34.10
2018-09-19T16:30:29.514Z,36.60
2018-09-19T16:33:54.040Z,36.60
2018-09-19T16:37:18.461Z,37.10
2018-09-19T16:40:42.902Z,37.70
2018-09-19T16:44:07.582Z,39.00
2018-09-19T16:47:32.079Z,41.80
2018-09-19T16:50:56.497Z,44.40
2018-09-19T16:54:20.940Z,46.40
2018-09-19T16:57:45.373Z,47.60
2018-09-19T17:01:09.864Z,48.50
2018-09-19T17:04:34.357Z,50.20
2018-09-19T17:07:58.922Z,50.10
2018-09-19T17:11:23.401Z,50.90
2018-09-19T17:14:47.803Z,51.00
2018-09-19T17:18:12.233Z,51.50
2018-09-19T17:23:12.525Z,51.60
2018-09-19T17:26:36.985Z,52.80
2018-09-19T17:30:01.427Z,53.70
2018-09-19T17:33:26.104Z,55.30
2018-09-19T17:36:50.637Z,55.10
2018-09-19T17:40:15.082Z,55.30
2018-09-19T17:43:39.472Z,54.90
2018-09-19T17:47:03.978Z,55.20
2018-09-19T17:50:28.501Z,56.60
2018-09-19T17:53:52.955Z,57.60
2018-09-19T17:57:17.422Z,57.20
2018-09-19T18:00:41.857Z,57.70
2018-09-19T18:04:06.390Z,57.40
2018-09-19T18:07:30.797Z,56.80
2018-09-19T18:10:55.261Z,57.50
2018-09-19T18:14:19.762Z,57.30
2018-09-19T18:17:44.265Z,57.70
2018-09-19T18:21:08.798Z,57.90
2018-09-19T18:24:33.256Z,57.50
2018-09-19T18:27:57.675Z,57.70
2018-09-19T18:31:22.119Z,58.10
2018-09-19T18:34:46.593Z,58.30
2018-09-19T18:38:11.147Z,58.50
2018-09-19T18:41:36.078Z,58.40
2018-09-19T18:45:00.521Z,58.60
2018-09-19T18:48:25.243Z,59.90
2018-09-19T18:51:49.732Z,60.30
2018-09-19T18:55:14.225Z,60.80
2018-09-19T18:58:38.816Z,61.00
2018-09-19T19:02:03.290Z,62.50
2018-09-19T19:05:27.745Z,63.70
2018-09-19T19:08:52.205Z,63.00
2018-09-19T19:12:17.966Z,64.60
2018-09-19T19:15:42.366Z,64.50
2018-09-19T19:19:07.820Z,65.70
2018-09-19T19:22:32.348Z,66.50
2018-09-19T19:25:58.227Z,66.80
2018-09-19T19:29:23.301Z,67.70
2018-09-19T19:32:48.862Z,68.70
2018-09-19T19:36:13.709Z,69.40
2018-09-19T19:39:38.381Z,70.50
2018-09-19T19:43:03.975Z,70.50
2018-09-19T19:46:29.767Z,71.40
2018-09-19T19:49:55.042Z,72.20
2018-09-19T19:53:19.496Z,72.40
2018-09-19T19:56:51.128Z,72.70
2018-09-19T20:00:15.587Z,73.20
2018-09-19T20:03:40.207Z,74.00
2018-09-19T20:07:05.337Z,74.10
2018-09-19T20:10:34.283Z,74.80
2018-09-19T20:14:01.450Z,75.30
2018-09-19T20:17:25.991Z,75.60
2018-09-19T20:20:50.454Z,75.10
2018-09-19T20:24:14.932Z,76.00
2018-09-19T20:27:39.539Z,75.70
2018-09-19T20:31:04.142Z,74.70
2018-09-19T20:34:28.691Z,75.90
2018-09-19T20:37:53.203Z,75.00
2018-09-19T20:41:17.688Z,74.30
2018-09-19T20:44:42.187Z,74.50
2018-09-19T20:48:06.862Z,74.60
2018-09-19T20:51:31.346Z,74.20
2018-09-19T20:54:55.836Z,74.40
2018-09-19T20:58:20.415Z,74.50
2018-09-19T21:01:44.873Z,74.10
2018-09-19T21:05:09.419Z,74.00
2018-09-19T21:08:33.845Z,74.10
2018-09-19T21:11:58.328Z,74.00
2018-09-19T21:15:23.453Z,74.20
2018-09-19T21:18:47.954Z,74.50
2018-09-19T21:22:12.637Z,74.50
2018-09-19T21:25:36.943Z,74.70
2018-09-19T21:29:01.419Z,74.90
2018-09-19T21:32:26.019Z,75.00
2018-09-19T21:35:50.449Z,75.30
2018-09-19T21:39:14.864Z,75.60
2018-09-19T21:42:39.291Z,76.80
2018-09-19T21:46:03.713Z,78.20
2018-09-19T21:49:28.147Z,77.70
2018-09-19T21:52:52.575Z,79.20
2018-09-19T21:56:16.995Z,79.90
2018-09-19T21:59:41.444Z,79.90
2018-09-19T22:03:06.078Z,80.70
2018-09-19T22:06:30.488Z,81.50
2018-09-19T22:10:01.676Z,81.70
2018-09-19T22:13:26.113Z,83.10
2018-09-19T22:16:50.519Z,83.00
2018-09-19T22:20:14.973Z,83.40
2018-09-19T22:23:39.386Z,83.20
2018-09-19T22:27:03.827Z,83.00
2018-09-19T22:30:28.277Z,83.30
2018-09-19T22:33:52.702Z,83.60
2018-09-19T22:37:17.118Z,83.60
2018-09-19T22:40:41.539Z,83.70
2018-09-19T22:44:06.049Z,83.90
2018-09-19T22:47:30.489Z,84.10
2018-09-19T22:50:54.915Z,84.40
2018-09-19T22:54:19.339Z,84.50
2018-09-19T22:57:43.741Z,84.10
2018-09-19T23:01:08.161Z,84.60
2018-09-19T23:04:32.609Z,85.00
2018-09-19T23:07:57.035Z,85.30
2018-09-19T23:11:21.449Z,85.50
2018-09-19T23:14:45.918Z,85.80
2018-09-19T23:18:10.357Z,85.70
2018-09-19T23:21:34.800Z,85.70
2018-09-19T23:24:59.180Z,85.80
2018-09-19T23:28:23.616Z,85.70
2018-09-19T23:31:48.095Z,86.40
2018-09-19T23:35:12.526Z,86.60
2018-09-19T23:38:36.983Z,86.70
2018-09-19T23:42:02.351Z,87.70
2018-09-19T23:45:26.772Z,87.30
2018-09-19T23:48:51.177Z,87.30
2018-09-19T23:52:15.626Z,87.70
2018-09-19T23:55:40.065Z,87.50
2018-09-19T23:59:04.523Z,87.80
